sensor_id;sensor_type;location;lat;lon;timestamp;P1;durP1;ratioP1;P2;durP2;ratioP2
77168;SDS011;66281;45.114;20.730;2023-04-10T00:01:42;59.85;;;30.42;;
77168;SDS011;66281;45.114;20.730;2023-04-10T00:11:42;64.00;;;30.73;;
77168;SDS011;66281;45.114;20.730;2023-04-10T00:21:43;70.57;;;32.85;;
77168;SDS011;66281;45.114;20.730;2023-04-10T00:31:43;58.47;;;29.23;;
77168;SDS011;66281;45.114;20.730;2023-04-10T00:41:44;58.60;;;26.55;;
77168;SDS011;66281;45.114;20.730;2023-04-10T00:51:44;54.10;;;26.52;;
77168;SDS011;66281;45.114;20.730;2023-04-10T01:01:45;48.35;;;23.40;;
77168;SDS011;66281;45.114;20.730;2023-04-10T01:11:53;47.63;;;23.47;;
77168;SDS011;66281;45.114;20.730;2023-04-10T01:21:54;46.70;;;24.43;;
77168;SDS011;66281;45.114;20.730;2023-04-10T01:32:00;39.87;;;19.77;;
77168;SDS011;66281;45.114;20.730;2023-04-10T01:42:02;41.13;;;20.37;;
77168;SDS011;66281;45.114;20.730;2023-04-10T01:52:13;38.55;;;19.20;;
77168;SDS011;66281;45.114;20.730;2023-04-10T02:02:17;47.00;;;25.00;;
77168;SDS011;66281;45.114;20.730;2023-04-10T02:12:29;56.43;;;27.97;;
77168;SDS011;66281;45.114;20.730;2023-04-10T02:22:35;45.00;;;24.10;;
77168;SDS011;66281;45.114;20.730;2023-04-10T02:32:37;42.78;;;20.90;;
77168;SDS011;66281;45.114;20.730;2023-04-10T02:42:41;40.77;;;20.60;;
77168;SDS011;66281;45.114;20.730;2023-04-10T02:52:42;41.00;;;19.30;;
77168;SDS011;66281;45.114;20.730;2023-04-10T03:02:42;37.20;;;17.50;;
77168;SDS011;66281;45.114;20.730;2023-04-10T03:12:49;37.65;;;17.08;;
77168;SDS011;66281;45.114;20.730;2023-04-10T03:22:50;35.50;;;18.27;;
77168;SDS011;66281;45.114;20.730;2023-04-10T03:32:50;38.40;;;17.10;;
77168;SDS011;66281;45.114;20.730;2023-04-10T03:42:51;32.50;;;16.20;;
77168;SDS011;66281;45.114;20.730;2023-04-10T03:52:52;34.77;;;18.30;;
77168;SDS011;66281;45.114;20.730;2023-04-10T04:02:55;35.55;;;16.92;;
77168;SDS011;66281;45.114;20.730;2023-04-10T04:13:14;34.20;;;16.50;;
77168;SDS011;66281;45.114;20.730;2023-04-10T04:23:38;61.47;;;26.47;;
77168;SDS011;66281;45.114;20.730;2023-04-10T04:33:38;62.22;;;24.67;;
77168;SDS011;66281;45.114;20.730;2023-04-10T04:43:57;47.67;;;22.07;;
77168;SDS011;66281;45.114;20.730;2023-04-10T04:54:13;41.50;;;18.65;;
77168;SDS011;66281;45.114;20.730;2023-04-10T05:04:13;51.00;;;22.75;;
77168;SDS011;66281;45.114;20.730;2023-04-10T05:14:31;39.57;;;19.40;;
77168;SDS011;66281;45.114;20.730;2023-04-10T05:24:38;37.60;;;19.37;;
77168;SDS011;66281;45.114;20.730;2023-04-10T05:35:14;37.50;;;19.55;;
77168;SDS011;66281;45.114;20.730;2023-04-10T05:45:26;37.23;;;19.00;;
77168;SDS011;66281;45.114;20.730;2023-04-10T05:55:49;43.50;;;22.53;;
77168;SDS011;66281;45.114;20.730;2023-04-10T06:06:11;39.10;;;19.65;;
77168;SDS011;66281;45.114;20.730;2023-04-10T06:16:14;44.93;;;22.90;;
77168;SDS011;66281;45.114;20.730;2023-04-10T06:26:14;40.37;;;23.00;;
77168;SDS011;66281;45.114;20.730;2023-04-10T06:36:15;36.50;;;18.63;;
77168;SDS011;66281;45.114;20.730;2023-04-10T06:46:23;26.57;;;18.70;;
77168;SDS011;66281;45.114;20.730;2023-04-10T06:56:24;30.45;;;19.73;;
77168;SDS011;66281;45.114;20.730;2023-04-10T07:06:25;40.10;;;25.83;;
77168;SDS011;66281;45.114;20.730;2023-04-10T07:16:26;31.90;;;21.00;;
77168;SDS011;66281;45.114;20.730;2023-04-10T07:26:26;39.05;;;24.40;;
77168;SDS011;66281;45.114;20.730;2023-04-10T07:36:27;48.13;;;30.50;;
77168;SDS011;66281;45.114;20.730;2023-04-10T07:46:27;37.65;;;23.90;;
77168;SDS011;66281;45.114;20.730;2023-04-10T07:56:28;25.27;;;18.45;;
77168;SDS011;66281;45.114;20.730;2023-04-10T08:06:28;26.23;;;17.05;;
77168;SDS011;66281;45.114;20.730;2023-04-10T08:16:29;19.30;;;14.17;;
77168;SDS011;66281;45.114;20.730;2023-04-10T08:26:31;19.40;;;13.68;;
77168;SDS011;66281;45.114;20.730;2023-04-10T08:36:33;18.30;;;13.50;;
77168;SDS011;66281;45.114;20.730;2023-04-10T08:46:35;18.27;;;13.00;;
77168;SDS011;66281;45.114;20.730;2023-04-10T08:56:36;21.67;;;13.77;;
77168;SDS011;66281;45.114;20.730;2023-04-10T09:06:37;20.52;;;14.10;;
77168;SDS011;66281;45.114;20.730;2023-04-10T09:16:38;18.73;;;13.30;;
77168;SDS011;66281;45.114;20.730;2023-04-10T09:26:39;27.20;;;15.60;;
77168;SDS011;66281;45.114;20.730;2023-04-10T09:36:41;23.43;;;16.90;;
77168;SDS011;66281;45.114;20.730;2023-04-10T09:46:55;29.05;;;16.92;;
77168;SDS011;66281;45.114;20.730;2023-04-10T09:56:55;22.90;;;15.45;;
77168;SDS011;66281;45.114;20.730;2023-04-10T10:06:56;21.30;;;14.60;;
77168;SDS011;66281;45.114;20.730;2023-04-10T10:16:57;33.87;;;19.67;;
77168;SDS011;66281;45.114;20.730;2023-04-10T10:27:00;29.77;;;18.90;;
77168;SDS011;66281;45.114;20.730;2023-04-10T10:37:01;16.77;;;12.57;;
77168;SDS011;66281;45.114;20.730;2023-04-10T10:47:12;20.95;;;15.15;;
77168;SDS011;66281;45.114;20.730;2023-04-10T12:10:07;17.23;;;10.82;;
77168;SDS011;66281;45.114;20.730;2023-04-10T12:20:08;14.73;;;9.47;;
77168;SDS011;66281;45.114;20.730;2023-04-10T12:30:09;16.90;;;10.00;;
77168;SDS011;66281;45.114;20.730;2023-04-10T12:40:10;12.40;;;8.32;;
77168;SDS011;66281;45.114;20.730;2023-04-10T12:50:12;18.38;;;11.57;;
77168;SDS011;66281;45.114;20.730;2023-04-10T13:00:17;15.87;;;10.37;;
77168;SDS011;66281;45.114;20.730;2023-04-10T13:10:18;14.37;;;9.07;;
77168;SDS011;66281;45.114;20.730;2023-04-10T13:20:18;14.30;;;9.33;;
77168;SDS011;66281;45.114;20.730;2023-04-10T13:30:19;13.48;;;9.23;;
77168;SDS011;66281;45.114;20.730;2023-04-10T13:40:20;15.00;;;10.23;;
77168;SDS011;66281;45.114;20.730;2023-04-10T13:50:20;16.23;;;9.88;;
77168;SDS011;66281;45.114;20.730;2023-04-10T14:00:21;16.80;;;11.40;;
77168;SDS011;66281;45.114;20.730;2023-04-10T14:10:22;15.05;;;10.50;;
77168;SDS011;66281;45.114;20.730;2023-04-10T14:20:22;21.80;;;12.03;;
77168;SDS011;66281;45.114;20.730;2023-04-10T14:30:23;26.02;;;15.27;;
77168;SDS011;66281;45.114;20.730;2023-04-10T14:40:24;14.70;;;10.07;;
77168;SDS011;66281;45.114;20.730;2023-04-10T14:50:24;21.75;;;12.93;;
77168;SDS011;66281;45.114;20.730;2023-04-10T15:00:24;19.23;;;11.13;;
77168;SDS011;66281;45.114;20.730;2023-04-10T15:10:27;14.77;;;9.83;;
77168;SDS011;66281;45.114;20.730;2023-04-10T15:20:28;16.98;;;8.93;;
77168;SDS011;66281;45.114;20.730;2023-04-10T15:30:29;19.00;;;11.70;;
77168;SDS011;66281;45.114;20.730;2023-04-10T15:40:30;19.43;;;12.37;;
77168;SDS011;66281;45.114;20.730;2023-04-10T15:50:30;36.95;;;19.50;;
77168;SDS011;66281;45.114;20.730;2023-04-10T16:00:30;38.57;;;20.47;;
77168;SDS011;66281;45.114;20.730;2023-04-10T16:10:31;75.83;;;34.43;;
77168;SDS011;66281;45.114;20.730;2023-04-10T16:20:31;42.22;;;21.52;;
77168;SDS011;66281;45.114;20.730;2023-04-10T16:30:33;29.27;;;16.37;;
77168;SDS011;66281;45.114;20.730;2023-04-10T16:40:34;26.27;;;14.45;;
77168;SDS011;66281;45.114;20.730;2023-04-10T16:50:35;17.40;;;11.37;;
77168;SDS011;66281;45.114;20.730;2023-04-10T17:00:35;23.23;;;13.20;;
77168;SDS011;66281;45.114;20.730;2023-04-10T17:10:36;27.40;;;16.95;;
77168;SDS011;66281;45.114;20.730;2023-04-10T17:20:36;28.90;;;15.90;;
77168;SDS011;66281;45.114;20.730;2023-04-10T17:30:37;29.90;;;15.88;;
77168;SDS011;66281;45.114;20.730;2023-04-10T17:40:37;30.67;;;15.57;;
77168;SDS011;66281;45.114;20.730;2023-04-10T17:50:38;33.42;;;16.48;;
77168;SDS011;66281;45.114;20.730;2023-04-10T18:00:41;36.67;;;19.45;;
77168;SDS011;66281;45.114;20.730;2023-04-10T18:10:41;42.93;;;22.27;;
77168;SDS011;66281;45.114;20.730;2023-04-10T18:20:42;38.85;;;19.52;;
77168;SDS011;66281;45.114;20.730;2023-04-10T18:30:42;59.47;;;28.20;;
77168;SDS011;66281;45.114;20.730;2023-04-10T18:40:43;75.23;;;33.93;;
77168;SDS011;66281;45.114;20.730;2023-04-10T18:50:44;61.95;;;30.08;;
77168;SDS011;66281;45.114;20.730;2023-04-10T19:00:44;39.28;;;22.65;;
77168;SDS011;66281;45.114;20.730;2023-04-10T19:10:45;33.53;;;19.67;;
77168;SDS011;66281;45.114;20.730;2023-04-10T19:20:45;34.95;;;18.52;;
77168;SDS011;66281;45.114;20.730;2023-04-10T19:30:46;34.83;;;17.92;;
77168;SDS011;66281;45.114;20.730;2023-04-10T19:40:47;52.37;;;27.30;;
77168;SDS011;66281;45.114;20.730;2023-04-10T19:50:47;53.20;;;27.23;;
77168;SDS011;66281;45.114;20.730;2023-04-10T20:00:48;51.15;;;31.95;;
77168;SDS011;66281;45.114;20.730;2023-04-10T20:10:48;51.28;;;26.10;;
77168;SDS011;66281;45.114;20.730;2023-04-10T20:20:49;46.20;;;22.55;;
77168;SDS011;66281;45.114;20.730;2023-04-10T20:30:49;50.13;;;26.60;;
77168;SDS011;66281;45.114;20.730;2023-04-10T20:40:50;35.37;;;21.23;;
77168;SDS011;66281;45.114;20.730;2023-04-10T20:50:50;39.50;;;21.67;;
77168;SDS011;66281;45.114;20.730;2023-04-10T21:00:51;36.40;;;20.67;;
77168;SDS011;66281;45.114;20.730;2023-04-10T21:10:52;46.08;;;24.75;;
77168;SDS011;66281;45.114;20.730;2023-04-10T21:20:53;46.53;;;24.47;;
77168;SDS011;66281;45.114;20.730;2023-04-10T21:30:53;45.38;;;22.30;;
77168;SDS011;66281;45.114;20.730;2023-04-10T21:40:53;42.15;;;19.88;;
77168;SDS011;66281;45.114;20.730;2023-04-10T21:50:54;33.33;;;17.92;;
77168;SDS011;66281;45.114;20.730;2023-04-10T22:00:54;35.13;;;19.23;;
77168;SDS011;66281;45.114;20.730;2023-04-10T22:10:55;38.97;;;20.38;;
77168;SDS011;66281;45.114;20.730;2023-04-10T22:20:55;31.57;;;17.57;;
77168;SDS011;66281;45.114;20.730;2023-04-10T22:30:56;24.42;;;14.25;;
77168;SDS011;66281;45.114;20.730;2023-04-10T22:40:56;23.02;;;14.60;;
77168;SDS011;66281;45.114;20.730;2023-04-10T22:50:57;22.05;;;13.38;;
77168;SDS011;66281;45.114;20.730;2023-04-10T23:00:57;23.25;;;13.52;;
77168;SDS011;66281;45.114;20.730;2023-04-10T23:10:58;22.60;;;14.27;;
77168;SDS011;66281;45.114;20.730;2023-04-10T23:21:02;25.77;;;15.45;;
77168;SDS011;66281;45.114;20.730;2023-04-10T23:31:04;37.60;;;18.77;;
77168;SDS011;66281;45.114;20.730;2023-04-10T23:41:04;36.17;;;19.07;;
77168;SDS011;66281;45.114;20.730;2023-04-10T23:51:06;36.67;;;18.50;;
